Time;durP1;ratioP1;P1;durP2;ratioP2;P2;SDS_P1;SDS_P2;PMS_P1;PMS_P2;Temp;Humidity;BMP_temperature;BMP_pressure;BME280_temperature;BME280_humidity;BME280_pressure;Samples;Min_cycle;Max_cycle;Signal;HPM_P1;HPM_P2
2021/07/11 00:02:29;;;;;;;16.80;15.23;;;;;;;;;;5033494;28;20445;-64
2021/07/11 00:04:56;;;;;;;22.13;16.93;;;;;;;;;;5033556;28;20445;-63
2021/07/11 00:07:23;;;;;;;18.17;14.60;;;;;;;;;;5033556;28;20491;-64
2021/07/11 00:09:51;;;;;;;16.53;14.80;;;;;;;;;;5033396;28;20529;-64
2021/07/11 00:12:19;;;;;;;16.57;14.80;;;;;;;;;;5033445;28;20519;-63
2021/07/11 00:14:47;;;;;;;17.27;15.47;;;;;;;;;;5033591;28;20441;-64
2021/07/11 00:17:14;;;;;;;17.17;15.37;;;;;;;;;;5033523;28;20511;-64
2021/07/11 00:19:41;;;;;;;17.57;15.90;;;;;;;;;;5033336;28;20495;-63
2021/07/11 00:22:08;;;;;;;17.47;16.07;;;;;;;;;;5033579;28;20572;-65
2021/07/11 00:24:39;;;;;;;17.57;15.97;;;;;;;;;;5036541;28;20859;-64
2021/07/11 00:27:06;;;;;;;19.10;17.30;;;;;;;;;;5037429;28;20503;-64
2021/07/11 00:29:35;;;;;;;17.43;15.83;;;;;;;;;;5037372;28;20441;-64
2021/07/11 00:32:02;;;;;;;18.47;16.77;;;;;;;;;;5037412;28;20440;-64
2021/07/11 00:34:30;;;;;;;18.40;16.60;;;;;;;;;;5037423;28;20559;-63
2021/07/11 00:36:57;;;;;;;18.37;16.67;;;;;;;;;;5038149;28;20448;-64
2021/07/11 00:39:24;;;;;;;18.10;16.50;;;;;;;;;;5037047;28;20944;-64
2021/07/11 00:41:51;;;;;;;18.30;16.60;;;;;;;;;;5036786;28;20485;-64
2021/07/11 00:44:19;;;;;;;19.20;17.40;;;;;;;;;;5037269;28;20453;-64
2021/07/11 00:46:47;;;;;;;17.73;16.13;;;;;;;;;;5036837;28;20475;-64
2021/07/11 00:49:16;;;;;;;17.43;15.73;;;;;;;;;;5036794;28;20494;-63
2021/07/11 00:51:43;;;;;;;17.97;16.37;;;;;;;;;;5037123;28;20464;-63
2021/07/11 00:54:10;;;;;;;18.17;16.57;;;;;;;;;;5036564;28;20895;-64
2021/07/11 00:56:38;;;;;;;18.00;16.20;;;;;;;;;;5036381;28;20449;-63
2021/07/11 00:59:06;;;;;;;16.03;14.50;;;;;;;;;;5036905;28;20480;-64
2021/07/11 01:01:35;;;;;;;17.53;15.97;;;;;;;;;;5036747;28;20461;-64
2021/07/11 01:04:06;;;;;;;18.83;16.80;;;;;;;;;;5036598;28;20437;-63
2021/07/11 01:06:35;;;;;;;19.00;15.43;;;;;;;;;;5037016;28;20433;-64
2021/07/11 01:09:04;;;;;;;17.50;15.90;;;;;;;;;;5036395;28;20539;-64
2021/07/11 01:11:33;;;;;;;18.00;16.27;;;;;;;;;;5036717;28;20469;-64
2021/07/11 01:14:01;;;;;;;17.90;16.30;;;;;;;;;;5036646;28;20510;-64
2021/07/11 01:16:30;;;;;;;16.97;15.37;;;;;;;;;;5036689;28;20452;-64
2021/07/11 01:19:00;;;;;;;16.93;15.37;;;;;;;;;;5036534;28;20452;-64
2021/07/11 01:21:31;;;;;;;17.87;16.10;;;;;;;;;;5036062;28;21045;-64
2021/07/11 01:24:00;;;;;;;17.90;16.40;;;;;;;;;;5035994;28;20429;-64
2021/07/11 01:26:30;;;;;;;18.20;16.60;;;;;;;;;;5036141;28;20456;-64
2021/07/11 01:28:58;;;;;;;17.37;15.67;;;;;;;;;;5036258;28;20453;-64
2021/07/11 01:31:26;;;;;;;18.30;16.50;;;;;;;;;;5035789;28;20556;-63
2021/07/11 01:33:54;;;;;;;17.60;15.77;;;;;;;;;;5036209;28;20481;-64
2021/07/11 01:36:21;;;;;;;16.90;15.20;;;;;;;;;;5035254;28;20448;-63
2021/07/11 01:38:50;;;;;;;19.00;16.50;;;;;;;;;;5035968;28;20519;-63
2021/07/11 01:41:18;;;;;;;18.40;16.60;;;;;;;;;;5035656;28;20823;-63
2021/07/11 01:43:48;;;;;;;18.37;16.30;;;;;;;;;;5035759;28;20445;-63
2021/07/11 01:46:15;;;;;;;18.40;16.70;;;;;;;;;;5035903;28;20430;-63
2021/07/11 01:48:44;;;;;;;18.43;16.70;;;;;;;;;;5035493;28;20453;-63
2021/07/11 01:51:11;;;;;;;18.87;17.10;;;;;;;;;;5035428;28;20530;-64
2021/07/11 01:53:39;;;;;;;17.40;15.80;;;;;;;;;;5035602;28;20546;-63
2021/07/11 01:56:08;;;;;;;19.50;17.67;;;;;;;;;;5035565;28;20449;-64
2021/07/11 01:58:35;;;;;;;19.93;18.03;;;;;;;;;;5035588;28;20484;-63
2021/07/11 02:01:05;;;;;;;18.67;16.97;;;;;;;;;;5035363;28;20473;-63
2021/07/11 02:03:32;;;;;;;19.77;17.97;;;;;;;;;;5035468;28;20437;-63
2021/07/11 02:05:59;;;;;;;19.27;17.47;;;;;;;;;;5035240;28;20858;-63
2021/07/11 02:08:26;;;;;;;21.47;15.83;;;;;;;;;;5035233;28;20986;-63
2021/07/11 02:10:54;;;;;;;19.17;15.83;;;;;;;;;;5035396;28;20515;-63
2021/07/11 02:13:25;;;;;;;19.70;17.70;;;;;;;;;;5035836;28;20476;-63
2021/07/11 02:15:54;;;;;;;19.97;18.07;;;;;;;;;;5035562;28;20463;-63
2021/07/11 02:18:24;;;;;;;19.37;17.37;;;;;;;;;;5034889;28;20929;-63
2021/07/11 02:20:51;;;;;;;19.73;17.83;;;;;;;;;;5035057;28;20469;-63
2021/07/11 02:23:19;;;;;;;19.57;17.70;;;;;;;;;;5035079;28;20445;-63
2021/07/11 02:25:47;;;;;;;21.03;18.90;;;;;;;;;;5034734;28;20453;-63
2021/07/11 02:28:14;;;;;;;19.33;17.63;;;;;;;;;;5034770;28;20869;-63
2021/07/11 02:30:51;;;;;;;19.53;17.67;;;;;;;;;;5034938;28;20464;-64
2021/07/11 02:33:26;;;;;;;19.70;17.90;;;;;;;;;;5034611;28;20862;-63
2021/07/11 02:35:55;;;;;;;19.70;17.90;;;;;;;;;;5034573;28;20520;-63
2021/07/11 02:38:22;;;;;;;20.17;18.40;;;;;;;;;;5034845;28;20864;-63
2021/07/11 02:40:52;;;;;;;19.90;18.00;;;;;;;;;;5035791;28;20547;-63
2021/07/11 02:43:20;;;;;;;19.03;17.23;;;;;;;;;;5034896;28;20437;-63
2021/07/11 02:45:47;;;;;;;20.07;18.20;;;;;;;;;;5034759;28;20441;-62
2021/07/11 02:48:15;;;;;;;19.87;18.07;;;;;;;;;;5033473;28;20499;-63
2021/07/11 02:50:44;;;;;;;18.33;16.73;;;;;;;;;;5034497;28;21030;-62
2021/07/11 02:53:13;;;;;;;20.47;18.60;;;;;;;;;;5034470;28;20444;-63
2021/07/11 02:55:41;;;;;;;20.13;18.23;;;;;;;;;;5034803;28;20507;-63
2021/07/11 02:58:12;;;;;;;19.73;17.77;;;;;;;;;;5034397;28;20983;-63
2021/07/11 03:00:39;;;;;;;21.70;19.33;;;;;;;;;;5035349;28;20523;-64
2021/07/11 03:03:06;;;;;;;19.63;17.83;;;;;;;;;;5034321;28;21004;-63
2021/07/11 03:05:33;;;;;;;20.30;18.37;;;;;;;;;;5034215;28;20991;-63
2021/07/11 03:08:02;;;;;;;18.43;16.70;;;;;;;;;;5034024;28;20870;-63
2021/07/11 03:10:31;;;;;;;19.43;17.70;;;;;;;;;;5033965;28;21035;-62
2021/07/11 03:13:00;;;;;;;20.93;19.03;;;;;;;;;;5033784;28;20500;-63
2021/07/11 03:15:27;;;;;;;19.03;17.17;;;;;;;;;;5033852;28;21012;-64
2021/07/11 03:17:55;;;;;;;20.10;18.30;;;;;;;;;;5034329;28;20445;-63
2021/07/11 03:20:23;;;;;;;21.17;19.07;;;;;;;;;;5034357;28;20473;-64
2021/07/11 03:22:52;;;;;;;22.03;19.73;;;;;;;;;;5033923;28;21062;-64
2021/07/11 03:25:19;;;;;;;22.23;19.10;;;;;;;;;;5033707;28;20446;-64
2021/07/11 03:27:49;;;;;;;20.20;18.27;;;;;;;;;;5033615;28;21018;-64
2021/07/11 03:30:18;;;;;;;22.13;19.90;;;;;;;;;;5033844;28;20817;-65
2021/07/11 03:32:47;;;;;;;21.53;19.53;;;;;;;;;;5033799;28;20918;-63
2021/07/11 03:35:15;;;;;;;20.73;18.60;;;;;;;;;;5033654;28;20527;-64
2021/07/11 03:37:44;;;;;;;20.07;18.17;;;;;;;;;;5033784;28;20449;-64
2021/07/11 03:40:13;;;;;;;19.23;17.50;;;;;;;;;;5033462;28;20534;-63
2021/07/11 03:42:42;;;;;;;19.97;17.97;;;;;;;;;;5033718;28;20449;-63
2021/07/11 03:45:12;;;;;;;20.23;18.53;;;;;;;;;;5033767;28;20522;-64
2021/07/11 03:47:41;;;;;;;20.50;18.70;;;;;;;;;;5033322;28;20503;-64
2021/07/11 03:50:09;;;;;;;18.50;16.70;;;;;;;;;;5033616;28;20507;-63
2021/07/11 03:52:39;;;;;;;19.43;17.60;;;;;;;;;;5033637;28;20445;-63
2021/07/11 03:55:07;;;;;;;19.43;17.50;;;;;;;;;;5034449;28;20469;-64
2021/07/11 03:57:35;;;;;;;21.77;19.67;;;;;;;;;;5034566;28;20503;-63
2021/07/11 04:00:03;;;;;;;19.50;17.80;;;;;;;;;;5034344;28;20461;-64
2021/07/11 04:02:34;;;;;;;20.07;18.03;;;;;;;;;;5033288;28;20925;-64
2021/07/11 04:08:20;;;;;;;19.70;17.73;;;;;;;;;;5091642;27;21128;-63
2021/07/11 04:10:48;;;;;;;18.70;16.93;;;;;;;;;;5091291;28;20462;-64
2021/07/11 04:13:15;;;;;;;19.93;18.23;;;;;;;;;;5090558;28;20446;-64
2021/07/11 04:15:45;;;;;;;19.50;17.70;;;;;;;;;;5090697;28;20454;-64
2021/07/11 04:18:14;;;;;;;20.87;19.00;;;;;;;;;;5090562;28;20447;-64
2021/07/11 04:20:42;;;;;;;19.80;18.00;;;;;;;;;;5090400;28;20542;-64
2021/07/11 04:23:11;;;;;;;18.87;17.07;;;;;;;;;;5090878;28;20495;-64
2021/07/11 04:25:41;;;;;;;20.30;18.40;;;;;;;;;;5090302;28;20991;-63
2021/07/11 04:28:09;;;;;;;18.30;16.80;;;;;;;;;;5090733;28;20466;-64
2021/07/11 04:30:37;;;;;;;18.60;17.00;;;;;;;;;;5090489;28;20526;-64
2021/07/11 04:33:04;;;;;;;18.40;16.90;;;;;;;;;;5090529;28;20500;-63
2021/07/11 04:35:32;;;;;;;18.73;16.93;;;;;;;;;;5090603;28;20454;-64
2021/07/11 04:37:59;;;;;;;16.97;15.50;;;;;;;;;;5090468;28;20443;-63
2021/07/11 04:40:26;;;;;;;17.20;15.73;;;;;;;;;;5090215;28;20501;-64
2021/07/11 04:42:55;;;;;;;17.97;16.47;;;;;;;;;;5090141;28;21003;-63
2021/07/11 04:45:22;;;;;;;16.97;15.37;;;;;;;;;;5090153;28;20493;-63
2021/07/11 04:47:50;;;;;;;17.40;15.90;;;;;;;;;;5090123;28;20480;-64
2021/07/11 04:50:17;;;;;;;17.70;15.90;;;;;;;;;;5089979;28;20468;-64
2021/07/11 04:52:44;;;;;;;17.80;16.10;;;;;;;;;;5090253;28;20898;-62
2021/07/11 04:55:15;;;;;;;17.53;16.10;;;;;;;;;;5090364;28;20453;-63
2021/07/11 04:57:42;;;;;;;18.03;16.43;;;;;;;;;;5089947;28;20905;-64
2021/07/11 05:00:12;;;;;;;16.93;15.33;;;;;;;;;;5089898;28;20478;-64
2021/07/11 05:02:40;;;;;;;16.90;15.40;;;;;;;;;;5090304;28;20446;-63
2021/07/11 05:05:08;;;;;;;18.20;16.70;;;;;;;;;;5090300;28;20451;-63
2021/07/11 05:07:35;;;;;;;16.83;15.43;;;;;;;;;;5089958;28;20478;-63
2021/07/11 05:10:03;;;;;;;16.70;15.10;;;;;;;;;;5090074;28;20524;-63
2021/07/11 05:12:30;;;;;;;17.03;15.60;;;;;;;;;;5090151;28;20445;-63
2021/07/11 05:14:57;;;;;;;15.43;14.13;;;;;;;;;;5089510;28;20447;-63
2021/07/11 05:17:26;;;;;;;17.40;16.10;;;;;;;;;;5089520;28;20491;-63
2021/07/11 05:19:53;;;;;;;17.43;15.57;;;;;;;;;;5075849;28;20521;-63
2021/07/11 05:22:20;;;;;;;17.00;15.60;;;;;;;;;;5076415;28;20447;-63
2021/07/11 05:24:48;;;;;;;15.20;13.97;;;;;;;;;;5076213;28;20444;-64
2021/07/11 05:27:15;;;;;;;14.73;13.47;;;;;;;;;;5075888;28;20538;-63
2021/07/11 05:29:42;;;;;;;16.10;14.77;;;;;;;;;;5076129;28;20439;-64
2021/07/11 05:32:09;;;;;;;14.83;13.50;;;;;;;;;;5075700;28;20935;-63
2021/07/11 05:34:38;;;;;;;15.70;14.40;;;;;;;;;;5075490;28;20447;-63
2021/07/11 05:37:05;;;;;;;15.53;14.00;;;;;;;;;;5075884;28;20857;-63
2021/07/11 05:39:32;;;;;;;16.20;14.70;;;;;;;;;;5075292;28;20939;-64
2021/07/11 05:42:00;;;;;;;16.73;15.33;;;;;;;;;;5075421;28;20445;-63
2021/07/11 05:44:27;;;;;;;14.83;13.63;;;;;;;;;;5075571;28;20864;-64
2021/07/11 05:46:55;;;;;;;14.97;13.53;;;;;;;;;;5076031;28;20472;-62
2021/07/11 05:49:22;;;;;;;15.27;13.90;;;;;;;;;;5075291;28;20542;-65
2021/07/11 05:51:51;;;;;;;16.00;14.70;;;;;;;;;;5075505;28;20455;-64
2021/07/11 05:54:18;;;;;;;15.47;14.17;;;;;;;;;;5075611;28;20493;-63
2021/07/11 05:56:45;;;;;;;14.60;13.40;;;;;;;;;;5076266;28;20510;-64
2021/07/11 05:59:12;;;;;;;16.50;15.10;;;;;;;;;;5075705;28;20882;-64
2021/07/11 06:01:40;;;;;;;15.73;14.20;;;;;;;;;;5074982;28;20479;-64
2021/07/11 06:04:07;;;;;;;15.67;14.37;;;;;;;;;;5075406;28;20499;-62
2021/07/11 06:06:34;;;;;;;14.80;13.60;;;;;;;;;;5074334;28;20464;-63
2021/07/11 06:09:03;;;;;;;15.00;13.70;;;;;;;;;;5075240;28;20448;-65
2021/07/11 06:11:30;;;;;;;15.50;14.30;;;;;;;;;;5075166;28;20465;-64
2021/07/11 06:13:57;;;;;;;15.17;13.97;;;;;;;;;;5075060;28;20498;-64
2021/07/11 06:16:25;;;;;;;14.80;13.50;;;;;;;;;;5075155;28;20444;-64
2021/07/11 06:18:52;;;;;;;14.43;13.13;;;;;;;;;;5074790;28;20442;-63
2021/07/11 06:21:19;;;;;;;14.33;13.23;;;;;;;;;;5074647;28;21041;-63
2021/07/11 06:23:47;;;;;;;14.60;13.13;;;;;;;;;;5074589;28;20446;-64
2021/07/11 06:26:16;;;;;;;15.40;13.90;;;;;;;;;;5074564;28;20469;-64
2021/07/11 06:28:43;;;;;;;14.50;13.30;;;;;;;;;;5074680;28;20901;-63
2021/07/11 06:31:10;;;;;;;13.93;12.70;;;;;;;;;;5073353;28;20590;-63
2021/07/11 06:33:38;;;;;;;15.20;13.90;;;;;;;;;;5074821;28;20501;-64
2021/07/11 06:36:05;;;;;;;14.10;12.97;;;;;;;;;;5074650;28;20451;-64
2021/07/11 06:38:32;;;;;;;14.83;13.70;;;;;;;;;;5074317;28;20936;-64
2021/07/11 06:40:59;;;;;;;16.23;14.90;;;;;;;;;;5074221;28;20524;-64
2021/07/11 06:43:28;;;;;;;15.00;13.70;;;;;;;;;;5074184;28;20461;-64
2021/07/11 06:45:55;;;;;;;15.63;14.30;;;;;;;;;;5074029;28;20508;-63
2021/07/11 06:48:22;;;;;;;15.23;14.00;;;;;;;;;;5074199;28;20578;-63
2021/07/11 06:50:50;;;;;;;14.33;13.13;;;;;;;;;;5073950;28;20472;-63
2021/07/11 06:53:17;;;;;;;15.00;13.60;;;;;;;;;;5074227;28;20446;-64
2021/07/11 06:55:45;;;;;;;17.57;16.03;;;;;;;;;;5074391;28;20460;-63
2021/07/11 06:58:12;;;;;;;17.83;16.30;;;;;;;;;;5073945;28;20857;-63
2021/07/11 07:00:41;;;;;;;16.33;14.90;;;;;;;;;;5074138;28;20501;-63
2021/07/11 07:03:08;;;;;;;17.77;16.23;;;;;;;;;;5073659;28;21025;-63
2021/07/11 07:05:35;;;;;;;17.77;16.17;;;;;;;;;;5073972;28;20505;-63
2021/07/11 07:08:03;;;;;;;21.17;19.20;;;;;;;;;;5073392;28;20483;-63
2021/07/11 07:10:30;;;;;;;18.13;16.63;;;;;;;;;;5073884;28;20521;-63
2021/07/11 07:12:57;;;;;;;20.60;18.70;;;;;;;;;;5073535;28;20862;-63
2021/07/11 07:15:25;;;;;;;20.57;18.37;;;;;;;;;;5073533;28;20897;-62
2021/07/11 07:17:53;;;;;;;18.90;17.20;;;;;;;;;;5073723;28;20499;-62
2021/07/11 07:20:21;;;;;;;17.97;16.53;;;;;;;;;;5073595;28;20514;-62
2021/07/11 07:22:48;;;;;;;16.70;15.20;;;;;;;;;;5073758;28;20516;-62
2021/07/11 07:25:16;;;;;;;16.07;14.67;;;;;;;;;;5073485;28;20945;-61
2021/07/11 07:27:44;;;;;;;16.67;15.10;;;;;;;;;;5073604;28;20482;-62
2021/07/11 07:30:15;;;;;;;15.97;14.77;;;;;;;;;;5073732;28;20866;-60
2021/07/11 07:32:42;;;;;;;14.63;13.33;;;;;;;;;;5073958;28;20845;-61
2021/07/11 07:35:11;;;;;;;15.80;14.50;;;;;;;;;;5073770;28;20441;-63
2021/07/11 07:37:38;;;;;;;16.13;14.43;;;;;;;;;;5073234;28;20447;-62
2021/07/11 07:40:07;;;;;;;15.23;13.50;;;;;;;;;;5073426;28;20471;-62
2021/07/11 07:42:34;;;;;;;13.90;12.70;;;;;;;;;;5072787;28;20451;-63
2021/07/11 07:45:01;;;;;;;15.03;13.83;;;;;;;;;;5073092;28;20440;-63
2021/07/11 07:47:28;;;;;;;15.10;13.80;;;;;;;;;;5072904;28;20471;-63
2021/07/11 07:49:56;;;;;;;14.20;12.90;;;;;;;;;;5073863;28;20473;-63
2021/07/11 07:52:25;;;;;;;14.57;13.37;;;;;;;;;;5073892;28;20450;-63
2021/07/11 07:54:52;;;;;;;13.70;12.47;;;;;;;;;;5073299;28;20452;-63
2021/07/11 07:57:19;;;;;;;13.73;12.57;;;;;;;;;;5072985;28;20932;-63
2021/07/11 07:59:46;;;;;;;13.80;12.70;;;;;;;;;;5073213;28;20507;-63
2021/07/11 08:02:13;;;;;;;13.57;12.40;;;;;;;;;;5073571;28;20451;-63
2021/07/11 08:04:42;;;;;;;13.30;12.20;;;;;;;;;;5073180;28;20813;-63
2021/07/11 08:07:09;;;;;;;15.47;14.13;;;;;;;;;;5072745;28;20824;-62
2021/07/11 08:09:38;;;;;;;14.43;13.03;;;;;;;;;;5072755;28;20496;-62
2021/07/11 08:12:05;;;;;;;14.37;13.13;;;;;;;;;;5073111;28;20522;-63
2021/07/11 08:14:32;;;;;;;13.73;12.63;;;;;;;;;;5073157;28;20438;-63
2021/07/11 08:17:00;;;;;;;15.47;14.17;;;;;;;;;;5072711;28;20443;-63
2021/07/11 08:19:27;;;;;;;13.67;12.67;;;;;;;;;;5073049;28;20443;-63
2021/07/11 08:21:57;;;;;;;12.60;11.60;;;;;;;;;;5072493;28;20461;-63
2021/07/11 08:24:24;;;;;;;13.03;11.93;;;;;;;;;;5072711;28;20430;-63
2021/07/11 08:26:53;;;;;;;11.80;10.90;;;;;;;;;;5072918;28;20443;-63
2021/07/11 08:29:20;;;;;;;13.10;12.00;;;;;;;;;;5072874;28;20475;-62
2021/07/11 08:31:48;;;;;;;12.80;11.90;;;;;;;;;;5072771;28;20472;-63
2021/07/11 08:34:15;;;;;;;12.67;11.67;;;;;;;;;;5072896;28;20450;-62
2021/07/11 08:36:42;;;;;;;14.33;13.03;;;;;;;;;;5072421;28;20621;-61
2021/07/11 08:39:09;;;;;;;13.83;12.73;;;;;;;;;;5072845;28;20497;-63
2021/07/11 08:41:37;;;;;;;13.73;12.50;;;;;;;;;;5072683;28;20511;-63
2021/07/11 08:44:06;;;;;;;12.00;11.00;;;;;;;;;;5072563;28;20443;-61
2021/07/11 08:46:48;;;;;;;11.27;10.23;;;;;;;;;;5072586;28;20451;-64
2021/07/11 08:49:15;;;;;;;12.13;11.17;;;;;;;;;;5073044;28;20461;-63
2021/07/11 08:51:42;;;;;;;12.50;11.50;;;;;;;;;;5072760;28;20882;-64
2021/07/11 08:54:10;;;;;;;12.70;11.60;;;;;;;;;;5074604;28;20576;-64
2021/07/11 08:56:37;;;;;;;11.77;10.80;;;;;;;;;;5076541;28;20447;-63
2021/07/11 08:59:06;;;;;;;11.33;10.33;;;;;;;;;;5075909;28;20490;-62
2021/07/11 09:01:33;;;;;;;11.00;9.80;;;;;;;;;;5075845;28;20529;-64
2021/07/11 09:04:04;;;;;;;11.07;10.27;;;;;;;;;;5076177;28;20926;-62
2021/07/11 09:06:45;;;;;;;10.03;9.20;;;;;;;;;;5075780;28;20877;-64
2021/07/11 09:09:13;;;;;;;10.00;9.20;;;;;;;;;;5075797;28;20949;-62
2021/07/11 09:11:48;;;;;;;10.90;10.00;;;;;;;;;;5075624;28;20981;-62
2021/07/11 09:14:21;;;;;;;10.43;9.47;;;;;;;;;;5076127;28;20450;-62
2021/07/11 09:16:48;;;;;;;11.73;10.83;;;;;;;;;;5075521;28;20933;-62
2021/07/11 09:19:22;;;;;;;11.40;10.50;;;;;;;;;;5075764;28;20446;-63
2021/07/11 09:21:53;;;;;;;14.93;12.23;;;;;;;;;;5075729;28;20469;-64
2021/07/11 09:24:21;;;;;;;13.23;12.10;;;;;;;;;;5075292;28;20461;-60
2021/07/11 09:26:50;;;;;;;14.33;12.40;;;;;;;;;;5076004;28;20443;-63
2021/07/11 09:29:26;;;;;;;14.03;13.03;;;;;;;;;;5075405;28;20472;-62
2021/07/11 09:31:54;;;;;;;12.03;11.10;;;;;;;;;;5075350;28;20973;-64
2021/07/11 09:34:23;;;;;;;13.60;12.50;;;;;;;;;;5075434;28;20999;-62
2021/07/11 09:36:53;;;;;;;13.17;11.90;;;;;;;;;;5075791;28;20529;-61
2021/07/11 09:39:25;;;;;;;11.57;10.67;;;;;;;;;;5075729;28;20429;-60
2021/07/11 09:41:52;;;;;;;11.73;10.80;;;;;;;;;;5075431;28;20469;-59
2021/07/11 09:44:20;;;;;;;12.20;11.10;;;;;;;;;;5075527;28;21006;-61
2021/07/11 09:46:48;;;;;;;12.70;11.70;;;;;;;;;;5075470;28;20846;-61
2021/07/11 09:49:17;;;;;;;12.70;11.70;;;;;;;;;;5075789;28;20473;-62
2021/07/11 09:51:44;;;;;;;11.57;10.53;;;;;;;;;;5076428;28;21036;-60
2021/07/11 09:54:12;;;;;;;11.63;10.63;;;;;;;;;;5076973;28;20564;-61
2021/07/11 09:56:40;;;;;;;11.60;10.70;;;;;;;;;;5076598;28;20936;-63
2021/07/11 09:59:08;;;;;;;11.23;10.33;;;;;;;;;;5076372;28;20453;-62
2021/07/11 10:01:37;;;;;;;10.73;9.83;;;;;;;;;;5075801;28;20464;-62
2021/07/11 10:04:06;;;;;;;11.60;10.60;;;;;;;;;;5075199;28;20857;-61
2021/07/11 10:06:34;;;;;;;12.77;11.57;;;;;;;;;;5074523;28;20955;-62
2021/07/11 10:09:02;;;;;;;13.90;11.00;;;;;;;;;;5074696;28;20598;-62
2021/07/11 10:11:29;;;;;;;12.10;11.00;;;;;;;;;;5075036;28;20463;-62
2021/07/11 10:13:57;;;;;;;11.33;10.30;;;;;;;;;;5074978;28;20445;-61
2021/07/11 10:16:25;;;;;;;11.50;10.50;;;;;;;;;;5074909;28;20452;-62
2021/07/11 10:18:55;;;;;;;11.30;10.30;;;;;;;;;;5075062;28;20447;-62
2021/07/11 10:21:28;;;;;;;12.60;11.40;;;;;;;;;;5074538;28;20471;-61
2021/07/11 10:23:55;;;;;;;11.80;10.80;;;;;;;;;;5074527;28;20500;-62
2021/07/11 10:26:23;;;;;;;12.50;11.37;;;;;;;;;;5075149;28;20447;-62
2021/07/11 10:28:51;;;;;;;12.23;11.03;;;;;;;;;;5074306;28;21001;-62
2021/07/11 10:31:19;;;;;;;11.70;10.67;;;;;;;;;;5073817;28;20468;-62
2021/07/11 10:33:47;;;;;;;11.17;10.27;;;;;;;;;;5074625;28;20456;-62
2021/07/11 10:36:14;;;;;;;12.40;11.10;;;;;;;;;;5074360;28;21005;-61
2021/07/11 10:38:46;;;;;;;11.00;10.10;;;;;;;;;;5074298;28;20465;-62
2021/07/11 10:41:14;;;;;;;12.37;11.00;;;;;;;;;;5074503;28;20474;-61
2021/07/11 10:43:41;;;;;;;10.87;9.70;;;;;;;;;;5074078;28;20503;-62
2021/07/11 10:46:09;;;;;;;10.57;9.67;;;;;;;;;;5074029;28;20448;-62
2021/07/11 10:48:36;;;;;;;11.10;10.20;;;;;;;;;;5074241;28;20553;-62
2021/07/11 10:51:04;;;;;;;11.13;10.20;;;;;;;;;;5073904;28;21080;-61
2021/07/11 10:53:35;;;;;;;11.53;10.37;;;;;;;;;;5074161;28;20455;-62
2021/07/11 10:56:04;;;;;;;9.60;8.87;;;;;;;;;;5074213;28;20447;-62
2021/07/11 10:58:39;;;;;;;9.40;8.70;;;;;;;;;;5073934;28;20452;-61
2021/07/11 11:01:16;;;;;;;9.77;8.97;;;;;;;;;;5074453;28;20460;-62
2021/07/11 11:03:46;;;;;;;9.40;8.47;;;;;;;;;;5074481;28;20430;-61
2021/07/11 11:06:14;;;;;;;11.67;10.57;;;;;;;;;;5074645;28;20545;-62
2021/07/11 11:08:44;;;;;;;10.87;10.00;;;;;;;;;;5073861;28;20553;-62
2021/07/11 11:11:12;;;;;;;9.30;8.60;;;;;;;;;;5073661;28;20572;-62
2021/07/11 11:13:39;;;;;;;10.47;9.40;;;;;;;;;;5074106;28;20444;-62
2021/07/11 11:16:15;;;;;;;9.43;8.70;;;;;;;;;;5073139;28;20956;-61
2021/07/11 11:18:44;;;;;;;10.50;9.37;;;;;;;;;;5073597;28;20520;-62
2021/07/11 11:21:14;;;;;;;10.67;9.60;;;;;;;;;;5073504;28;21014;-63
2021/07/11 11:23:43;;;;;;;10.37;9.47;;;;;;;;;;5073546;28;20426;-62
2021/07/11 11:26:11;;;;;;;11.47;10.47;;;;;;;;;;5073327;28;20448;-62
2021/07/11 11:28:40;;;;;;;11.43;10.50;;;;;;;;;;5073034;28;20535;-62
2021/07/11 11:31:12;;;;;;;10.67;9.80;;;;;;;;;;5073348;28;20519;-62
2021/07/11 11:33:49;;;;;;;10.43;9.63;;;;;;;;;;5073082;28;20516;-62
2021/07/11 11:36:18;;;;;;;10.60;9.70;;;;;;;;;;5073027;28;20501;-62
2021/07/11 11:38:46;;;;;;;10.40;9.50;;;;;;;;;;5073282;28;20499;-61
2021/07/11 11:41:13;;;;;;;11.63;10.67;;;;;;;;;;5073204;28;20526;-62
2021/07/11 11:43:43;;;;;;;10.27;9.53;;;;;;;;;;5073382;28;20457;-61
2021/07/11 11:46:10;;;;;;;10.30;9.50;;;;;;;;;;5072905;28;20469;-62
2021/07/11 11:48:37;;;;;;;8.97;8.07;;;;;;;;;;5072515;28;20478;-62
2021/07/11 11:51:05;;;;;;;9.13;8.43;;;;;;;;;;5073138;28;20481;-62
2021/07/11 11:53:43;;;;;;;9.40;8.60;;;;;;;;;;5072958;28;20495;-61
2021/07/11 11:56:12;;;;;;;9.13;8.30;;;;;;;;;;5073431;28;20537;-62
2021/07/11 11:58:40;;;;;;;8.83;8.20;;;;;;;;;;5073647;28;20438;-62
2021/07/11 12:01:09;;;;;;;8.80;8.00;;;;;;;;;;5073069;28;21010;-62
2021/07/11 12:03:36;;;;;;;7.90;7.30;;;;;;;;;;5073507;28;20442;-62
2021/07/11 12:06:04;;;;;;;8.70;8.00;;;;;;;;;;5073171;28;20442;-62
2021/07/11 12:08:33;;;;;;;7.63;7.00;;;;;;;;;;5073520;28;20429;-62
2021/07/11 12:11:01;;;;;;;7.57;6.97;;;;;;;;;;5073474;28;20525;-61
2021/07/11 12:13:29;;;;;;;7.83;7.20;;;;;;;;;;5073690;28;20465;-61
2021/07/11 12:16:03;;;;;;;7.00;6.50;;;;;;;;;;5073263;28;20457;-62
2021/07/11 12:18:41;;;;;;;7.07;6.37;;;;;;;;;;5072730;28;20931;-62
2021/07/11 12:21:08;;;;;;;7.20;6.67;;;;;;;;;;5072860;28;20465;-62
2021/07/11 12:23:36;;;;;;;6.90;6.30;;;;;;;;;;5073667;28;20504;-63
2021/07/11 12:26:06;;;;;;;6.80;6.20;;;;;;;;;;5072828;28;20940;-62
2021/07/11 12:28:35;;;;;;;8.47;6.30;;;;;;;;;;5073940;28;20434;-63
2021/07/11 12:31:02;;;;;;;6.10;5.60;;;;;;;;;;5076437;28;20978;-62
2021/07/11 12:33:31;;;;;;;6.63;6.03;;;;;;;;;;5076444;28;20967;-62
2021/07/11 12:35:59;;;;;;;6.70;6.10;;;;;;;;;;5076669;28;20442;-63
2021/07/11 12:38:31;;;;;;;6.50;6.00;;;;;;;;;;5077456;28;20510;-63
2021/07/11 12:40:59;;;;;;;6.33;5.83;;;;;;;;;;5076248;28;20886;-61
2021/07/11 12:43:30;;;;;;;7.13;6.40;;;;;;;;;;5077502;28;20804;-62
2021/07/11 12:46:02;;;;;;;6.57;6.17;;;;;;;;;;5076413;28;20916;-63
2021/07/11 12:48:36;;;;;;;7.30;5.70;;;;;;;;;;5076772;28;20460;-61
2021/07/11 12:51:14;;;;;;;6.47;6.07;;;;;;;;;;5076599;28;20508;-64
2021/07/11 12:53:42;;;;;;;6.67;6.17;;;;;;;;;;5076605;28;20429;-63
2021/07/11 12:56:09;;;;;;;6.97;6.27;;;;;;;;;;5076595;28;20445;-62
2021/07/11 12:58:37;;;;;;;6.50;6.00;;;;;;;;;;5076259;28;20499;-62
2021/07/11 13:01:05;;;;;;;8.93;7.00;;;;;;;;;;5076343;28;20551;-62
2021/07/11 13:03:33;;;;;;;7.30;6.80;;;;;;;;;;5076419;28;20547;-61
2021/07/11 13:06:00;;;;;;;7.33;6.73;;;;;;;;;;5076160;28;20442;-61
2021/07/11 13:08:29;;;;;;;7.40;6.50;;;;;;;;;;5076620;28;20430;-61
2021/07/11 13:10:56;;;;;;;7.90;7.23;;;;;;;;;;5075930;28;20481;-61
2021/07/11 13:13:24;;;;;;;7.03;6.53;;;;;;;;;;5076205;28;20901;-62
2021/07/11 13:15:51;;;;;;;7.23;6.63;;;;;;;;;;5077213;28;20440;-61
2021/07/11 13:18:18;;;;;;;7.37;6.70;;;;;;;;;;5076402;28;20448;-63
2021/07/11 13:20:46;;;;;;;7.00;6.30;;;;;;;;;;5076400;28;20829;-62
2021/07/11 13:23:14;;;;;;;7.60;6.90;;;;;;;;;;5076904;28;20450;-61
2021/07/11 13:25:43;;;;;;;7.50;6.80;;;;;;;;;;5076239;28;20448;-61
2021/07/11 13:28:11;;;;;;;7.23;6.60;;;;;;;;;;5076556;28;20536;-62
2021/07/11 13:30:38;;;;;;;7.67;7.00;;;;;;;;;;5075850;28;20574;-62
2021/07/11 13:33:06;;;;;;;7.70;7.10;;;;;;;;;;5077268;28;20448;-62
2021/07/11 13:35:33;;;;;;;7.47;6.87;;;;;;;;;;5076645;28;20445;-63
2021/07/11 13:38:00;;;;;;;7.00;6.50;;;;;;;;;;5077212;28;20441;-61
2021/07/11 13:40:28;;;;;;;7.63;6.93;;;;;;;;;;5077056;28;20460;-64
2021/07/11 13:42:56;;;;;;;7.90;7.30;;;;;;;;;;5080629;28;20514;-62
2021/07/11 13:45:24;;;;;;;8.90;6.50;;;;;;;;;;5077957;28;20785;-66
2021/07/11 13:47:51;;;;;;;7.20;6.60;;;;;;;;;;5077353;28;20765;-62
2021/07/11 13:50:19;;;;;;;5.63;5.23;;;;;;;;;;5075799;28;21015;-62
2021/07/11 13:52:47;;;;;;;7.17;6.47;;;;;;;;;;5076086;28;20484;-63
2021/07/11 13:55:18;;;;;;;7.00;6.40;;;;;;;;;;5075472;28;20501;-62
2021/07/11 13:57:45;;;;;;;7.17;6.57;;;;;;;;;;5076361;28;20502;-62
2021/07/11 14:00:15;;;;;;;6.97;6.20;;;;;;;;;;5075236;28;20518;-62
2021/07/11 14:02:42;;;;;;;7.37;6.67;;;;;;;;;;5075511;28;20937;-62
2021/07/11 14:05:10;;;;;;;6.97;6.27;;;;;;;;;;5075148;28;20449;-62
2021/07/11 14:07:37;;;;;;;6.00;5.60;;;;;;;;;;5075057;28;20460;-61
2021/07/11 14:10:05;;;;;;;5.70;5.30;;;;;;;;;;5074951;28;20541;-63
2021/07/11 14:12:32;;;;;;;5.70;5.20;;;;;;;;;;5075276;28;20502;-62
2021/07/11 14:15:01;;;;;;;6.20;5.70;;;;;;;;;;5075280;28;20876;-62
2021/07/11 14:17:30;;;;;;;5.77;5.20;;;;;;;;;;5075784;28;20449;-62
2021/07/11 14:19:57;;;;;;;15.80;9.90;;;;;;;;;;5075149;28;20460;-62
2021/07/11 14:22:25;;;;;;;5.30;4.80;;;;;;;;;;5075706;28;20458;-62
2021/07/11 14:24:52;;;;;;;7.13;5.90;;;;;;;;;;5077000;28;21005;-62
2021/07/11 14:27:20;;;;;;;8.97;6.40;;;;;;;;;;5076015;28;20449;-62
2021/07/11 14:29:47;;;;;;;5.37;4.83;;;;;;;;;;5075549;28;20477;-62
2021/07/11 14:32:14;;;;;;;7.00;5.80;;;;;;;;;;5074922;28;20504;-63
2021/07/11 14:34:43;;;;;;;5.03;4.60;;;;;;;;;;5075179;28;20527;-62